createdAt,value
2018-11-13T00:01:59.487Z,100783.77
2018-11-13T00:04:29.042Z,100782.50
2018-11-13T00:06:57.513Z,100781.33
2018-11-13T00:09:26.243Z,100781.22
2018-11-13T00:11:54.748Z,100792.30
2018-11-13T00:14:23.317Z,100785.89
2018-11-13T00:16:51.807Z,100785.16
2018-11-13T00:19:20.318Z,100781.05
2018-11-13T00:21:48.749Z,100785.82
2018-11-13T00:24:17.171Z,100783.70
2018-11-13T00:26:45.746Z,100784.50
2018-11-13T00:29:14.227Z,100781.59
2018-11-13T00:31:42.635Z,100788.09
2018-11-13T00:34:12.037Z,100782.86
2018-11-13T00:36:40.427Z,100782.77
2018-11-13T00:39:11.836Z,100780.71
2018-11-13T00:41:40.334Z,100781.13
2018-11-13T00:44:09.215Z,100789.78
2018-11-13T00:46:37.991Z,100793.98
2018-11-13T00:49:06.707Z,100786.28
2018-11-13T00:51:35.885Z,100785.43
2018-11-13T00:54:04.504Z,100793.54
2018-11-13T00:56:32.971Z,100789.73
2018-11-13T00:59:01.376Z,100791.42
2018-11-13T01:01:29.836Z,100785.45
2018-11-13T01:03:58.283Z,100778.20
2018-11-13T01:06:26.753Z,100779.52
2018-11-13T01:08:55.282Z,100778.20
2018-11-13T01:11:23.731Z,100770.14
2018-11-13T01:13:52.114Z,100766.41
2018-11-13T01:16:20.517Z,100775.09
2018-11-13T01:18:49.903Z,100778.94
2018-11-13T01:21:18.380Z,100773.39
2018-11-13T01:23:46.950Z,100781.24
2018-11-13T01:26:15.803Z,100785.91
2018-11-13T01:28:44.474Z,100782.81
2018-11-13T01:31:12.917Z,100782.36
2018-11-13T01:33:41.371Z,100781.89
2018-11-13T01:36:09.852Z,100785.34
2018-11-13T01:38:38.429Z,100786.14
2018-11-13T01:41:06.974Z,100795.56
2018-11-13T01:43:35.519Z,100798.19
2018-11-13T01:46:04.010Z,100795.20
2018-11-13T01:48:32.481Z,100802.48
2018-11-13T01:51:00.890Z,100819.98
2018-11-13T01:53:29.346Z,100836.24
2018-11-13T01:55:57.839Z,100831.78
2018-11-13T01:58:26.288Z,100838.98
2018-11-13T02:00:54.947Z,100833.00
2018-11-13T02:03:23.399Z,100822.69
2018-11-13T02:05:51.890Z,100824.86
2018-11-13T02:08:20.840Z,100827.44
2018-11-13T02:10:50.061Z,100828.31
2018-11-13T02:13:18.528Z,100838.16
2018-11-13T02:15:47.167Z,100836.08
2018-11-13T02:18:15.582Z,100833.91
2018-11-13T02:20:44.027Z,100821.48
2018-11-13T02:23:12.641Z,100815.11
2018-11-13T02:25:42.025Z,100817.66
2018-11-13T02:28:10.564Z,100820.62
2018-11-13T02:30:39.039Z,100810.37
2018-11-13T02:33:07.479Z,100808.65
2018-11-13T02:35:36.782Z,100798.44
2018-11-13T02:38:05.192Z,100793.31
2018-11-13T02:40:33.639Z,100781.75
2018-11-13T02:43:03.140Z,100772.81
2018-11-13T02:45:31.670Z,100771.55
2018-11-13T02:48:00.197Z,100770.69
2018-11-13T02:50:28.627Z,100775.80
2018-11-13T02:52:57.161Z,100781.78
2018-11-13T02:55:25.631Z,100785.31
2018-11-13T02:57:54.550Z,100776.83
2018-11-13T03:00:23.314Z,100775.55
2018-11-13T03:02:51.946Z,100770.88
2018-11-13T03:05:21.460Z,100759.48
2018-11-13T03:07:49.914Z,100765.11
2018-11-13T03:10:19.299Z,100775.42
2018-11-13T03:12:47.902Z,100775.80
2018-11-13T03:15:17.496Z,100771.12
2018-11-13T03:17:46.033Z,100767.73
2018-11-13T03:20:15.727Z,100777.08
2018-11-13T03:22:44.692Z,100774.12
2018-11-13T03:25:17.263Z,100772.84
2018-11-13T03:27:45.887Z,100777.14
2018-11-13T03:30:17.621Z,100773.70
2018-11-13T03:32:46.720Z,100767.28
2018-11-13T03:35:15.770Z,100766.81
2018-11-13T03:37:44.835Z,100769.02
2018-11-13T03:40:14.293Z,100775.44
2018-11-13T03:42:43.526Z,100777.08
2018-11-13T03:45:13.043Z,100777.08
2018-11-13T03:47:42.441Z,100787.44
2018-11-13T03:50:15.402Z,100785.69
2018-11-13T03:52:44.537Z,100783.95
2018-11-13T03:55:13.935Z,100775.89
2018-11-13T03:57:43.599Z,100788.69
2018-11-13T04:00:13.965Z,100789.95
2018-11-13T04:02:42.592Z,100793.80
2018-11-13T04:05:12.458Z,100786.98
2018-11-13T04:07:42.247Z,100774.61
2018-11-13T04:10:12.392Z,100762.31
2018-11-13T04:12:41.179Z,100752.06
2018-11-13T04:15:12.364Z,100762.77
2018-11-13T04:17:40.835Z,100772.56
2018-11-13T04:20:11.149Z,100771.23
2018-11-13T04:22:39.721Z,100772.93
2018-11-13T04:25:08.273Z,100766.98
2018-11-13T04:27:36.993Z,100774.69
2018-11-13T04:30:06.340Z,100787.50
2018-11-13T04:32:35.739Z,100790.00
2018-11-13T04:35:04.407Z,100787.87
2018-11-13T04:37:33.008Z,100789.97
2018-11-13T04:40:01.395Z,100788.25
2018-11-13T04:42:30.169Z,100780.98
2018-11-13T04:44:58.520Z,100789.08
2018-11-13T04:47:27.751Z,100797.13
2018-11-13T04:49:56.467Z,100795.48
2018-11-13T04:52:24.874Z,100804.00
2018-11-13T04:54:53.850Z,100806.12
2018-11-13T04:57:23.524Z,100810.02
2018-11-13T04:59:53.018Z,100807.47
2018-11-13T05:02:21.748Z,100810.02
2018-11-13T05:04:50.447Z,100818.99
2018-11-13T05:07:19.289Z,100820.27
2018-11-13T05:09:48.171Z,100829.32
2018-11-13T05:12:17.743Z,100837.47
2018-11-13T05:14:46.638Z,100843.43
2018-11-13T05:17:15.287Z,100853.67
2018-11-13T05:19:44.032Z,100853.61
2018-11-13T05:22:12.653Z,100858.73
2018-11-13T05:24:41.423Z,100853.23
2018-11-13T05:27:10.216Z,100856.71
2018-11-13T05:29:39.308Z,100855.48
2018-11-13T05:32:08.780Z,100856.78
2018-11-13T05:34:37.828Z,100857.20
2018-11-13T05:37:06.332Z,100850.74
2018-11-13T05:39:35.011Z,100847.73
2018-11-13T05:42:03.549Z,100844.70
2018-11-13T05:44:32.840Z,100853.70
2018-11-13T05:47:01.603Z,100841.84
2018-11-13T05:49:30.155Z,100844.43
2018-11-13T05:51:58.706Z,100842.32
2018-11-13T05:54:27.554Z,100843.15
2018-11-13T05:56:59.092Z,100836.72
2018-11-13T05:59:27.554Z,100831.14
2018-11-13T06:01:55.966Z,100831.53
2018-11-13T06:04:24.736Z,100828.52
2018-11-13T06:06:53.264Z,100827.67
2018-11-13T06:09:21.884Z,100831.52
2018-11-13T06:11:50.612Z,100834.47
2018-11-13T06:14:19.646Z,100835.30
2018-11-13T06:16:48.345Z,100828.06
2018-11-13T06:19:17.183Z,100829.80
2018-11-13T06:21:46.288Z,100843.89
2018-11-13T06:24:15.070Z,100852.08
2018-11-13T06:26:44.119Z,100849.15
2018-11-13T06:29:13.108Z,100855.50
2018-11-13T06:31:41.932Z,100858.50
2018-11-13T06:34:10.762Z,100873.50
2018-11-13T06:36:39.925Z,100872.62
2018-11-13T06:39:11.732Z,100879.02
2018-11-13T06:41:40.834Z,100886.30
2018-11-13T06:44:09.713Z,100896.58
2018-11-13T06:46:40.668Z,100920.92
2018-11-13T06:49:10.054Z,100921.81
2018-11-13T06:51:39.101Z,100926.88
2018-11-13T06:54:18.920Z,100929.00
2018-11-13T06:56:47.933Z,100929.43
2018-11-13T06:59:17.038Z,100931.98
2018-11-13T07:01:45.947Z,100938.34
2018-11-13T07:04:15.027Z,100930.26
2018-11-13T07:06:43.677Z,100934.50
2018-11-13T07:09:12.268Z,100930.71
2018-11-13T07:11:41.276Z,100941.74
2018-11-13T07:14:10.177Z,100934.50
2018-11-13T07:16:39.034Z,100931.55
2018-11-13T07:19:07.782Z,100935.33
2018-11-13T07:21:37.156Z,100932.32
2018-11-13T07:24:05.818Z,100944.28
2018-11-13T07:26:34.376Z,100931.87
2018-11-13T07:29:03.206Z,100915.66
2018-11-13T07:31:32.068Z,100916.92
2018-11-13T07:34:00.791Z,100918.20
2018-11-13T07:36:29.470Z,100905.80
2018-11-13T07:38:58.724Z,100909.69
2018-11-13T07:41:27.572Z,100910.07
2018-11-13T07:43:56.337Z,100928.41
2018-11-13T07:46:24.963Z,100928.86
2018-11-13T07:48:53.825Z,100933.13
2018-11-13T07:51:22.553Z,100932.25
2018-11-13T07:53:51.246Z,100937.81
2018-11-13T07:56:19.843Z,100936.92
2018-11-13T07:58:48.380Z,100939.94
2018-11-13T08:01:16.972Z,100957.42
2018-11-13T08:03:45.499Z,100968.96
2018-11-13T08:06:14.264Z,100972.81
2018-11-13T08:11:22.537Z,100970.70
2018-11-13T08:13:51.047Z,100972.86
2018-11-13T08:16:19.618Z,100969.47
2018-11-13T08:18:48.318Z,100971.61
2018-11-13T08:21:16.869Z,100970.31
2018-11-13T08:23:45.514Z,100981.41
2018-11-13T08:26:14.207Z,100996.83
2018-11-13T08:28:42.796Z,100993.83
2018-11-13T08:31:11.334Z,100983.57
2018-11-13T08:33:40.083Z,100973.30
2018-11-13T08:36:09.146Z,100972.87
2018-11-13T08:38:37.790Z,100987.80
2018-11-13T08:41:07.274Z,100995.92
2018-11-13T08:43:36.119Z,100996.31
2018-11-13T08:46:05.090Z,101001.02
2018-11-13T08:48:33.906Z,100994.58
2018-11-13T08:51:02.515Z,101000.10
2018-11-13T08:53:31.256Z,101003.94
2018-11-13T08:55:59.797Z,100997.45
2018-11-13T08:58:28.473Z,101011.97
2018-11-13T09:00:56.849Z,101011.57
2018-11-13T09:03:25.511Z,101017.92
2018-11-13T09:05:54.182Z,101005.11
2018-11-13T09:08:22.672Z,101003.87
2018-11-13T09:10:51.168Z,101008.94
2018-11-13T09:13:19.726Z,101016.17
2018-11-13T09:15:48.249Z,101030.28
2018-11-13T09:18:16.881Z,101031.50
2018-11-13T09:20:45.577Z,101037.46
2018-11-13T09:23:14.334Z,101031.84
2018-11-13T09:25:42.833Z,101036.45
2018-11-13T09:28:11.438Z,101031.72
2018-11-13T09:30:40.051Z,101031.27
2018-11-13T09:33:08.508Z,101029.86
2018-11-13T09:35:37.216Z,101031.12
2018-11-13T09:38:05.965Z,101021.69
2018-11-13T09:40:34.516Z,101014.80
2018-11-13T09:43:03.257Z,101008.27
2018-11-13T09:45:31.943Z,101017.17
2018-11-13T09:48:00.668Z,101023.97
2018-11-13T09:50:29.277Z,101022.20
2018-11-13T09:52:57.836Z,101026.50
2018-11-13T09:55:26.567Z,101024.71
2018-11-13T09:57:55.208Z,101027.53
2018-11-13T10:00:25.881Z,101031.05
2018-11-13T10:03:02.017Z,101029.89
2018-11-13T10:05:29.709Z,101037.77
2018-11-13T10:07:58.755Z,101031.98
2018-11-13T10:10:27.663Z,101032.73
2018-11-13T10:12:56.356Z,101040.73
2018-11-13T10:15:26.282Z,101036.23
2018-11-13T10:17:54.910Z,101031.05
2018-11-13T10:20:23.563Z,101040.27
2018-11-13T10:22:53.307Z,101030.34
2018-11-13T10:25:21.960Z,101037.09
2018-11-13T10:27:50.589Z,101033.27
2018-11-13T10:30:20.492Z,101042.91
2018-11-13T10:32:49.652Z,101044.55
2018-11-13T10:35:19.595Z,101047.63
2018-11-13T10:37:48.410Z,101031.19
2018-11-13T10:40:18.549Z,101032.98
2018-11-13T10:42:47.029Z,101046.02
2018-11-13T10:45:17.217Z,101025.67
2018-11-13T10:47:45.775Z,101026.34
2018-11-13T10:50:18.046Z,101034.71
2018-11-13T10:52:46.602Z,101033.37
2018-11-13T10:55:15.232Z,101034.71
2018-11-13T10:57:43.976Z,101040.05
2018-11-13T11:00:18.493Z,101047.18
2018-11-13T11:02:52.575Z,101044.25
2018-11-13T11:05:21.495Z,101052.34
2018-11-13T11:07:50.694Z,101048.94
2018-11-13T11:10:19.510Z,101056.45
2018-11-13T11:12:48.376Z,101049.41
2018-11-13T11:15:17.133Z,101056.11
2018-11-13T11:17:45.681Z,101048.74
2018-11-13T11:20:14.513Z,101052.81
2018-11-13T11:22:43.173Z,101050.53
2018-11-13T11:25:12.849Z,101047.14
2018-11-13T11:27:41.658Z,101047.24
2018-11-13T11:30:14.147Z,101056.69
2018-11-13T11:32:42.796Z,101052.95
2018-11-13T11:35:11.710Z,101049.87
2018-11-13T11:37:40.987Z,101053.58
2018-11-13T11:40:11.256Z,101052.98
2018-11-13T11:42:39.878Z,101052.87
2018-11-13T11:45:10.753Z,101043.59
2018-11-13T11:47:39.267Z,101048.61
2018-11-13T11:50:09.277Z,101053.36
2018-11-13T11:52:38.297Z,101054.00
2018-11-13T11:55:07.313Z,101052.64
2018-11-13T11:57:36.279Z,101049.80
2018-11-13T12:00:06.734Z,101055.73
2018-11-13T12:02:35.210Z,101054.13
2018-11-13T12:05:03.946Z,101052.58
2018-11-13T12:07:32.631Z,101064.60
2018-11-13T12:10:01.490Z,101060.39
2018-11-13T12:12:30.590Z,101055.55
2018-11-13T12:14:59.240Z,101065.94
2018-11-13T12:17:27.909Z,101064.23
2018-11-13T12:19:56.515Z,101069.02
2018-11-13T12:22:25.172Z,101071.94
2018-11-13T12:24:54.070Z,101071.55
2018-11-13T12:27:22.655Z,101069.81
2018-11-13T12:29:51.434Z,101075.51
2018-11-13T12:32:20.015Z,101075.09
2018-11-13T12:34:48.814Z,101070.97
2018-11-13T12:37:17.923Z,101074.95
2018-11-13T12:39:46.590Z,101069.87
2018-11-13T12:42:15.721Z,101080.66
2018-11-13T12:44:45.790Z,101083.75
2018-11-13T12:47:14.685Z,101082.07
2018-11-13T12:49:43.876Z,101086.50
2018-11-13T12:52:15.938Z,101090.25
2018-11-13T12:54:46.469Z,101078.97
2018-11-13T12:57:15.912Z,101081.19
2018-11-13T12:59:45.915Z,101079.64
2018-11-13T13:02:16.282Z,101080.08
2018-11-13T13:04:46.638Z,101089.52
2018-11-13T13:07:15.290Z,101080.09
2018-11-13T13:09:44.335Z,101081.38
2018-11-13T13:12:13.200Z,101070.14
2018-11-13T13:14:41.677Z,101076.97
2018-11-13T13:17:10.205Z,101072.45
2018-11-13T13:19:38.683Z,101066.38
2018-11-13T13:22:07.482Z,101067.61
2018-11-13T13:24:35.953Z,101065.14
2018-11-13T13:27:04.573Z,101069.92
2018-11-13T13:29:33.758Z,101071.66
2018-11-13T13:32:02.534Z,101072.03
2018-11-13T13:34:31.038Z,101074.28
2018-11-13T13:36:59.598Z,101075.96
2018-11-13T13:39:28.180Z,101081.16
2018-11-13T13:41:56.805Z,101084.94
2018-11-13T13:44:25.614Z,101087.08
2018-11-13T13:46:54.563Z,101084.13
2018-11-13T13:49:23.367Z,101088.86
2018-11-13T13:51:52.355Z,101094.86
2018-11-13T13:54:21.075Z,101089.65
2018-11-13T13:56:49.673Z,101091.00
2018-11-13T13:59:18.544Z,101092.22
2018-11-13T14:01:47.160Z,101102.95
2018-11-13T14:04:15.955Z,101106.41
2018-11-13T14:06:44.513Z,101105.20
2018-11-13T14:09:13.573Z,101111.25
2018-11-13T14:11:42.077Z,101122.45
2018-11-13T14:14:10.559Z,101132.83
2018-11-13T14:16:39.183Z,101140.89
2018-11-13T14:19:07.902Z,101149.28
2018-11-13T14:21:37.252Z,101174.70
2018-11-13T14:24:06.406Z,101204.20
2018-11-13T14:26:35.244Z,101224.23
2018-11-13T14:29:04.056Z,101206.16
2018-11-13T14:31:33.112Z,101202.45
2018-11-13T14:34:02.181Z,101199.89
2018-11-13T14:36:32.132Z,101187.17
2018-11-13T14:39:01.122Z,101186.30
2018-11-13T14:41:30.447Z,101181.64
2018-11-13T14:43:59.454Z,101182.92
2018-11-13T14:46:28.303Z,101182.06
2018-11-13T14:48:56.940Z,101194.84
2018-11-13T14:51:25.654Z,101200.42
2018-11-13T14:53:55.330Z,101203.84
2018-11-13T14:56:24.556Z,101205.54
2018-11-13T14:58:53.794Z,101207.25
2018-11-13T15:01:23.038Z,101217.51
2018-11-13T15:03:52.005Z,101220.91
2018-11-13T15:06:20.818Z,101229.02
2018-11-13T15:08:49.811Z,101235.00
2018-11-13T15:11:18.509Z,101236.28
2018-11-13T15:13:47.364Z,101243.97
2018-11-13T15:16:16.380Z,101246.07
2018-11-13T15:18:45.099Z,101253.31
2018-11-13T15:21:14.454Z,101247.37
2018-11-13T15:23:43.349Z,101248.20
2018-11-13T15:26:11.726Z,101249.91
2018-11-13T15:28:41.822Z,101261.86
2018-11-13T15:31:10.335Z,101268.23
2018-11-13T15:33:38.870Z,101266.53
2018-11-13T15:36:07.275Z,101277.62
2018-11-13T15:38:35.745Z,101277.17
2018-11-13T15:41:04.351Z,101283.98
2018-11-13T15:43:33.415Z,101286.12
2018-11-13T15:46:01.964Z,101285.28
2018-11-13T15:48:30.406Z,101282.73
2018-11-13T15:50:58.860Z,101292.50
2018-11-13T15:53:27.389Z,101303.17
2018-11-13T15:55:55.909Z,101303.58
2018-11-13T15:58:24.488Z,101308.27
2018-11-13T16:00:53.504Z,101306.14
2018-11-13T16:03:23.759Z,101316.78
2018-11-13T16:05:53.632Z,101311.27
2018-11-13T16:08:22.329Z,101307.43
2018-11-13T16:10:50.761Z,101324.89
2018-11-13T16:13:19.832Z,101322.33
2018-11-13T16:15:48.377Z,101329.98
2018-11-13T16:18:19.437Z,101338.92
2018-11-13T16:20:47.917Z,101335.11
2018-11-13T16:23:16.576Z,101339.35
2018-11-13T16:25:45.089Z,101343.62
2018-11-13T16:28:13.834Z,101343.17
2018-11-13T16:30:42.595Z,101346.56
2018-11-13T16:33:11.114Z,101346.58
2018-11-13T16:35:39.663Z,101347.02
2018-11-13T16:38:09.947Z,101359.78
2018-11-13T16:40:38.293Z,101362.78
2018-11-13T16:43:06.927Z,101366.17
2018-11-13T16:45:35.820Z,101366.61
2018-11-13T16:48:05.221Z,101376.41
2018-11-13T16:50:36.826Z,101376.39
2018-11-13T16:53:06.415Z,101378.11
2018-11-13T16:55:40.441Z,101385.76
2018-11-13T16:58:11.505Z,101390.88
2018-11-13T17:00:40.331Z,101392.12
2018-11-13T17:03:09.724Z,101392.13
2018-11-13T17:05:38.237Z,101389.99
2018-11-13T17:08:07.230Z,101395.95
2018-11-13T17:10:39.362Z,101401.05
2018-11-13T17:13:08.188Z,101397.65
2018-11-13T17:15:37.835Z,101407.85
2018-11-13T17:18:06.823Z,101402.72
2018-11-13T17:20:35.424Z,101407.84
2018-11-13T17:23:03.882Z,101407.39
2018-11-13T17:25:34.243Z,101409.97
2018-11-13T17:28:02.726Z,101414.64
2018-11-13T17:30:34.244Z,101414.20
2018-11-13T17:33:07.246Z,101426.13
2018-11-13T17:35:36.675Z,101424.43
2018-11-13T17:38:06.881Z,101427.38
2018-11-13T17:40:37.476Z,101427.81
2018-11-13T17:43:08.596Z,101430.35
2018-11-13T17:45:38.659Z,101431.21
2018-11-13T17:48:08.791Z,101429.90
2018-11-13T17:50:38.951Z,101435.48
2018-11-13T17:53:08.494Z,101435.51
2018-11-13T17:55:37.151Z,101438.11
2018-11-13T17:58:08.230Z,101435.94
2018-11-13T18:00:40.730Z,101441.02
2018-11-13T18:03:10.575Z,101444.81
2018-11-13T18:05:39.682Z,101439.70
2018-11-13T18:08:14.817Z,101442.26
2018-11-13T18:10:45.801Z,101444.36
2018-11-13T18:13:14.839Z,101447.73
2018-11-13T18:15:44.311Z,101449.84
2018-11-13T18:18:14.350Z,101449.42
2018-11-13T18:20:49.167Z,101451.12
2018-11-13T18:23:18.672Z,101452.80
2018-11-13T18:25:48.804Z,101456.63
2018-11-13T18:28:18.196Z,101451.90
2018-11-13T18:30:47.241Z,101450.64
2018-11-13T18:33:15.896Z,101451.92
2018-11-13T18:35:47.528Z,101456.61
2018-11-13T18:38:16.607Z,101459.53
2018-11-13T18:40:46.220Z,101455.68
2018-11-13T18:43:15.604Z,101459.09
2018-11-13T18:45:44.612Z,101460.78
2018-11-13T18:48:14.721Z,101458.64
2018-11-13T18:50:44.858Z,101459.06
2018-11-13T18:53:13.701Z,101466.70
2018-11-13T18:55:42.848Z,101470.52
2018-11-13T18:58:12.347Z,101471.77
2018-11-13T19:00:42.669Z,101471.37
2018-11-13T19:03:12.527Z,101470.50
2018-11-13T19:05:41.339Z,101468.75
2018-11-13T19:08:09.989Z,101468.70
2018-11-13T19:10:40.766Z,101470.88
2018-11-13T19:13:13.481Z,101477.27
2018-11-13T19:15:45.806Z,101471.75
2018-11-13T19:18:15.695Z,101475.98
2018-11-13T19:20:45.333Z,101480.22
2018-11-13T19:23:14.187Z,101477.68
2018-11-13T19:25:43.336Z,101481.48
2018-11-13T19:28:12.540Z,101480.23
2018-11-13T19:30:41.501Z,101483.63
2018-11-13T19:33:10.688Z,101483.19
2018-11-13T19:35:40.241Z,101487.89
2018-11-13T19:38:09.600Z,101494.29
2018-11-13T19:40:38.701Z,101496.38
2018-11-13T19:43:09.225Z,101498.93
2018-11-13T19:45:38.024Z,101496.75
2018-11-13T19:48:06.756Z,101498.44
2018-11-13T19:50:36.573Z,101500.53
2018-11-13T19:53:05.333Z,101501.81
2018-11-13T19:55:34.386Z,101508.19
2018-11-13T19:58:03.236Z,101508.59
2018-11-13T20:00:34.380Z,101511.14
2018-11-13T20:03:04.583Z,101515.45
2018-11-13T20:05:33.542Z,101518.80
2018-11-13T20:08:02.297Z,101520.09
2018-11-13T20:10:33.084Z,101519.66
2018-11-13T20:13:02.981Z,101523.08
2018-11-13T20:15:32.401Z,101529.45
2018-11-13T20:18:01.079Z,101528.63
2018-11-13T20:20:30.882Z,101538.46
2018-11-13T20:23:00.788Z,101541.87
2018-11-13T20:25:30.812Z,101540.14
2018-11-13T20:27:59.557Z,101539.73
2018-11-13T20:30:33.201Z,101546.12
2018-11-13T20:33:01.905Z,101544.41
2018-11-13T20:35:30.533Z,101548.66
2018-11-13T20:37:59.548Z,101549.07
2018-11-13T20:40:30.427Z,101559.73
2018-11-13T20:43:02.088Z,101563.95
2018-11-13T20:45:30.788Z,101561.41
2018-11-13T20:47:59.295Z,101563.98
2018-11-13T20:50:29.359Z,101563.11
2018-11-13T20:52:57.957Z,101566.53
2018-11-13T20:55:26.857Z,101567.78
2018-11-13T20:57:55.507Z,101568.64
2018-11-13T21:00:29.708Z,101569.06
2018-11-13T21:02:58.634Z,101566.92
2018-11-13T21:05:27.211Z,101568.15
2018-11-13T21:07:56.096Z,101570.28
2018-11-13T21:10:30.913Z,101571.97
2018-11-13T21:12:59.819Z,101579.16
2018-11-13T21:15:28.463Z,101580.44
2018-11-13T21:17:57.159Z,101584.25
2018-11-13T21:20:26.164Z,101581.25
2018-11-13T21:22:55.690Z,101585.06
2018-11-13T21:25:25.319Z,101580.83
2018-11-13T21:27:56.001Z,101587.18
2018-11-13T21:30:28.765Z,101592.28
2018-11-13T21:32:57.460Z,101591.01
2018-11-13T21:35:25.951Z,101600.81
2018-11-13T21:37:56.346Z,101611.02
2018-11-13T21:40:26.483Z,101611.42
2018-11-13T21:42:55.330Z,101613.97
2018-11-13T21:45:24.754Z,101615.19
2018-11-13T21:47:53.247Z,101621.16
2018-11-13T21:50:23.915Z,101617.31
2018-11-13T21:52:52.399Z,101622.39
2018-11-13T21:55:22.136Z,101627.44
2018-11-13T21:57:50.687Z,101632.12
2018-11-13T22:00:24.334Z,101629.56
2018-11-13T22:02:55.786Z,101637.61
2018-11-13T22:05:25.689Z,101635.06
2018-11-13T22:07:54.153Z,101638.84
2018-11-13T22:10:22.743Z,101644.80
2018-11-13T22:12:51.238Z,101644.73
2018-11-13T22:15:21.504Z,101643.46
2018-11-13T22:17:50.336Z,101642.59
2018-11-13T22:20:19.620Z,101647.66
2018-11-13T22:22:51.689Z,101644.69
2018-11-13T22:25:21.701Z,101647.64
2018-11-13T22:27:51.604Z,101653.56
2018-11-13T22:30:21.719Z,101650.16
2018-11-13T22:32:50.736Z,101659.93
2018-11-13T22:35:19.935Z,101661.63
2018-11-13T22:37:48.382Z,101659.91
2018-11-13T22:40:22.259Z,101662.88
2018-11-13T22:42:51.063Z,101662.00
2018-11-13T22:45:23.620Z,101661.98
2018-11-13T22:47:52.334Z,101661.13
2018-11-13T22:50:22.579Z,101663.25
2018-11-13T22:52:51.603Z,101659.00
2018-11-13T22:55:20.528Z,101659.82
2018-11-13T22:57:49.825Z,101665.31
2018-11-13T23:00:21.557Z,101665.71
2018-11-13T23:02:51.370Z,101671.63
2018-11-13T23:05:20.216Z,101670.75
2018-11-13T23:07:48.790Z,101665.23
2018-11-13T23:10:17.778Z,101673.30
2018-11-13T23:12:46.597Z,101673.30
2018-11-13T23:15:17.578Z,101677.09
2018-11-13T23:17:46.108Z,101678.38
2018-11-13T23:20:16.923Z,101677.91
2018-11-13T23:22:45.624Z,101682.16
2018-11-13T23:25:15.413Z,101679.62
2018-11-13T23:27:44.841Z,101683.05
2018-11-13T23:30:19.097Z,101681.77
2018-11-13T23:32:47.855Z,101692.30
2018-11-13T23:35:16.714Z,101684.66
2018-11-13T23:37:46.232Z,101691.42
2018-11-13T23:40:15.942Z,101693.58
2018-11-13T23:42:44.728Z,101693.97
2018-11-13T23:45:14.050Z,101688.05
2018-11-13T23:47:43.549Z,101701.62
2018-11-13T23:50:12.218Z,101694.82
2018-11-13T23:52:41.347Z,101698.58
2018-11-13T23:55:11.023Z,101702.86
2018-11-13T23:57:39.937Z,101702.80
